createdAt,value
2019-03-11T00:00:29.505Z,6.40
2019-03-11T00:01:29.475Z,6.30
2019-03-11T00:02:29.476Z,6.38
2019-03-11T00:03:29.448Z,6.40
2019-03-11T00:04:29.451Z,6.28
2019-03-11T00:05:29.427Z,6.37
2019-03-11T00:06:29.422Z,6.34
2019-03-11T00:07:29.406Z,6.30
2019-03-11T00:08:29.405Z,6.45
2019-03-11T00:09:29.389Z,6.38
2019-03-11T00:10:29.376Z,6.35
2019-03-11T00:11:29.374Z,6.46
2019-03-11T00:12:29.356Z,6.40
2019-03-11T00:13:29.349Z,6.47
2019-03-11T00:14:29.334Z,6.50
2019-03-11T00:15:29.319Z,6.61
2019-03-11T00:16:29.313Z,6.56
2019-03-11T00:17:29.297Z,6.52
2019-03-11T00:18:29.287Z,6.64
2019-03-11T00:19:29.282Z,6.73
2019-03-11T00:20:29.289Z,6.68
2019-03-11T00:21:29.263Z,6.78
2019-03-11T00:22:29.259Z,6.63
2019-03-11T00:23:29.237Z,6.81
2019-03-11T00:24:29.228Z,6.73
2019-03-11T00:25:29.230Z,6.68
2019-03-11T00:26:29.227Z,6.82
2019-03-11T00:27:29.219Z,6.83
2019-03-11T00:28:29.212Z,6.83
2019-03-11T00:29:29.172Z,6.82
2019-03-11T00:30:29.173Z,6.89
2019-03-11T00:31:29.156Z,6.85
2019-03-11T00:32:29.157Z,6.91
2019-03-11T00:33:29.153Z,6.89
2019-03-11T00:34:29.135Z,6.91
2019-03-11T00:35:29.115Z,7.00
2019-03-11T00:36:29.106Z,6.97
2019-03-11T00:37:29.101Z,7.03
2019-03-11T00:38:29.082Z,7.07
2019-03-11T00:39:29.076Z,7.06
2019-03-11T00:40:29.074Z,7.10
2019-03-11T00:41:29.060Z,7.11
2019-03-11T00:42:29.066Z,7.11
2019-03-11T00:43:29.037Z,7.10
2019-03-11T00:44:29.027Z,7.04
2019-03-11T00:45:29.032Z,7.03
2019-03-11T00:46:29.014Z,6.96
2019-03-11T00:47:28.997Z,6.93
2019-03-11T00:48:29.005Z,6.89
2019-03-11T00:49:28.975Z,6.86
2019-03-11T00:50:28.964Z,6.83
2019-03-11T00:51:28.981Z,6.82
2019-03-11T00:52:29.049Z,6.83
2019-03-11T00:53:28.939Z,6.79
2019-03-11T00:54:28.930Z,6.79
2019-03-11T00:55:28.916Z,6.74
2019-03-11T00:56:28.918Z,6.73
2019-03-11T00:57:28.901Z,6.74
2019-03-11T00:58:28.909Z,6.70
2019-03-11T00:59:28.883Z,6.63
2019-03-11T01:00:28.872Z,6.61
2019-03-11T01:01:28.855Z,6.65
2019-03-11T01:02:28.848Z,6.71
2019-03-11T01:03:28.835Z,6.56
2019-03-11T01:04:28.840Z,6.52
2019-03-11T01:05:28.823Z,6.52
2019-03-11T01:06:28.820Z,6.37
2019-03-11T01:07:28.802Z,6.37
2019-03-11T01:08:29.205Z,6.34
2019-03-11T01:09:28.773Z,6.21
2019-03-11T01:10:28.778Z,6.13
2019-03-11T01:11:28.756Z,6.08
2019-03-11T01:12:28.747Z,6.05
2019-03-11T01:13:28.741Z,6.00
2019-03-11T01:14:28.728Z,5.88
2019-03-11T01:15:28.721Z,5.93
2019-03-11T01:16:28.705Z,5.90
2019-03-11T01:17:28.714Z,5.82
2019-03-11T01:18:28.689Z,5.79
2019-03-11T01:19:28.688Z,5.72
2019-03-11T01:20:28.674Z,5.66
2019-03-11T01:21:28.655Z,5.65
2019-03-11T01:22:28.652Z,5.62
2019-03-11T01:23:28.640Z,5.51
2019-03-11T01:24:28.628Z,5.51
2019-03-11T01:25:28.616Z,5.50
2019-03-11T01:26:28.633Z,5.54
2019-03-11T01:27:28.590Z,5.59
2019-03-11T01:28:28.584Z,5.57
2019-03-11T01:29:28.585Z,5.69
2019-03-11T01:30:28.559Z,5.66
2019-03-11T01:31:28.564Z,5.65
2019-03-11T01:32:28.542Z,5.61
2019-03-11T01:33:28.533Z,5.65
2019-03-11T01:34:28.518Z,5.65
2019-03-11T01:35:28.524Z,5.58
2019-03-11T01:36:28.510Z,5.58
2019-03-11T01:37:28.506Z,5.57
2019-03-11T01:38:28.481Z,5.48
2019-03-11T01:39:28.478Z,5.44
2019-03-11T01:40:28.455Z,5.52
2019-03-11T01:41:28.458Z,5.52
2019-03-11T01:42:28.434Z,5.50
2019-03-11T01:43:28.441Z,5.52
2019-03-11T01:44:28.414Z,5.41
2019-03-11T01:45:28.409Z,5.43
2019-03-11T01:46:28.416Z,5.33
2019-03-11T01:47:28.406Z,5.37
2019-03-11T01:48:28.370Z,5.43
2019-03-11T01:49:28.364Z,5.47
2019-03-11T01:50:28.358Z,5.43
2019-03-11T01:51:28.347Z,5.47
2019-03-11T01:52:28.347Z,5.44
2019-03-11T01:53:28.311Z,5.33
2019-03-11T01:54:28.328Z,5.41
2019-03-11T01:55:28.326Z,5.37
2019-03-11T01:56:28.294Z,5.43
2019-03-11T01:57:28.280Z,5.48
2019-03-11T01:58:28.282Z,5.48
2019-03-11T01:59:28.257Z,5.51
2019-03-11T02:00:28.263Z,5.52
2019-03-11T02:01:28.235Z,5.44
2019-03-11T02:02:28.229Z,5.40
2019-03-11T02:03:28.216Z,5.50
2019-03-11T02:04:28.207Z,5.48
2019-03-11T02:05:28.205Z,5.59
2019-03-11T02:06:28.184Z,5.58
2019-03-11T02:07:28.174Z,5.57
2019-03-11T02:08:28.166Z,5.51
2019-03-11T02:09:28.151Z,5.57
2019-03-11T02:10:28.145Z,5.65
2019-03-11T02:11:28.143Z,5.67
2019-03-11T02:12:28.120Z,5.62
2019-03-11T02:13:28.126Z,5.66
2019-03-11T02:14:28.097Z,5.73
2019-03-11T02:15:28.094Z,5.73
2019-03-11T02:16:28.078Z,5.73
2019-03-11T02:17:28.096Z,5.77
2019-03-11T02:18:28.055Z,5.75
2019-03-11T02:19:28.046Z,5.76
2019-03-11T02:20:28.027Z,5.87
2019-03-11T02:21:28.026Z,5.80
2019-03-11T02:22:28.034Z,5.85
2019-03-11T02:23:28.002Z,5.87
2019-03-11T02:24:28.015Z,5.84
2019-03-11T02:25:27.984Z,5.97
2019-03-11T02:26:27.974Z,6.02
2019-03-11T02:27:27.959Z,6.02
2019-03-11T02:28:27.956Z,6.05
2019-03-11T02:29:27.950Z,6.09
2019-03-11T02:30:27.935Z,6.11
2019-03-11T02:31:27.921Z,6.09
2019-03-11T02:32:28.770Z,6.03
2019-03-11T02:33:27.912Z,5.98
2019-03-11T02:34:27.889Z,5.93
2019-03-11T02:35:27.882Z,5.88
2019-03-11T02:36:27.866Z,5.88
2019-03-11T02:37:27.850Z,5.76
2019-03-11T02:38:27.842Z,5.75
2019-03-11T02:39:27.852Z,5.77
2019-03-11T02:40:27.830Z,5.77
2019-03-11T02:41:27.814Z,5.77
2019-03-11T02:42:27.799Z,5.72
2019-03-11T02:43:27.789Z,5.72
2019-03-11T02:44:27.773Z,5.75
2019-03-11T02:45:27.783Z,5.73
2019-03-11T02:46:27.782Z,5.82
2019-03-11T02:47:27.753Z,5.75
2019-03-11T02:48:27.741Z,5.79
2019-03-11T02:49:27.730Z,5.73
2019-03-11T02:50:27.729Z,5.76
2019-03-11T02:51:27.704Z,5.75
2019-03-11T02:52:27.700Z,5.59
2019-03-11T02:53:27.694Z,5.58
2019-03-11T02:54:27.675Z,5.70
2019-03-11T02:55:27.684Z,5.61
2019-03-11T02:56:27.653Z,5.70
2019-03-11T02:57:27.652Z,5.67
2019-03-11T02:58:27.633Z,5.67
2019-03-11T02:59:27.627Z,5.66
2019-03-11T03:00:27.614Z,5.73
2019-03-11T03:01:27.651Z,5.61
2019-03-11T03:02:27.602Z,5.73
2019-03-11T03:03:27.585Z,5.66
2019-03-11T03:04:27.572Z,5.62
2019-03-11T03:05:27.564Z,5.72
2019-03-11T03:06:27.557Z,5.75
2019-03-11T03:07:27.548Z,5.61
2019-03-11T03:08:27.538Z,5.73
2019-03-11T03:09:27.521Z,5.59
2019-03-11T03:10:27.511Z,5.67
2019-03-11T03:11:27.493Z,5.65
2019-03-11T03:12:27.490Z,5.67
2019-03-11T03:13:27.495Z,5.70
2019-03-11T03:14:27.480Z,5.66
2019-03-11T03:15:27.447Z,5.66
2019-03-11T03:16:27.446Z,5.72
2019-03-11T03:17:27.471Z,5.70
2019-03-11T03:18:27.430Z,5.66
2019-03-11T03:19:27.443Z,5.67
2019-03-11T03:20:27.401Z,5.72
2019-03-11T03:21:27.399Z,5.76
2019-03-11T03:22:27.388Z,5.61
2019-03-11T03:23:27.383Z,5.72
2019-03-11T03:24:27.355Z,5.72
2019-03-11T03:25:33.942Z,5.69
2019-03-11T03:26:28.051Z,5.72
2019-03-11T03:27:27.328Z,5.76
2019-03-11T03:28:27.320Z,5.79
2019-03-11T03:29:27.314Z,5.84
2019-03-11T03:30:27.294Z,5.79
2019-03-11T03:31:27.299Z,5.75
2019-03-11T03:32:27.282Z,5.75
2019-03-11T03:33:27.274Z,5.82
2019-03-11T03:34:28.115Z,5.84
2019-03-11T03:35:27.259Z,5.87
2019-03-11T03:36:27.228Z,5.80
2019-03-11T03:37:27.223Z,5.82
2019-03-11T03:38:31.002Z,5.79
2019-03-11T03:39:27.203Z,5.75
2019-03-11T03:40:27.191Z,5.79
2019-03-11T03:41:27.187Z,5.77
2019-03-11T03:42:27.176Z,5.77
2019-03-11T03:43:27.153Z,5.72
2019-03-11T03:44:27.162Z,5.67
2019-03-11T03:45:27.146Z,5.70
2019-03-11T03:46:27.129Z,5.72
2019-03-11T03:47:27.129Z,5.66
2019-03-11T03:48:27.173Z,5.65
2019-03-11T03:49:27.096Z,5.66
2019-03-11T03:50:27.086Z,5.66
2019-03-11T03:51:27.078Z,5.65
2019-03-11T03:52:27.067Z,5.67
2019-03-11T03:53:27.059Z,5.58
2019-03-11T03:54:27.043Z,5.66
2019-03-11T03:55:27.052Z,5.66
2019-03-11T03:56:27.037Z,5.69
2019-03-11T03:57:27.019Z,5.66
2019-03-11T03:58:27.009Z,5.65
2019-03-11T03:59:27.017Z,5.66
2019-03-11T04:00:26.990Z,5.72
2019-03-11T04:01:26.964Z,5.70
2019-03-11T04:02:26.971Z,5.58
2019-03-11T04:03:26.951Z,5.67
2019-03-11T04:04:26.948Z,5.67
2019-03-11T04:05:26.944Z,5.67
2019-03-11T04:06:26.919Z,5.67
2019-03-11T04:07:26.906Z,5.62
2019-03-11T04:08:26.896Z,5.59
2019-03-11T04:09:26.904Z,5.58
2019-03-11T04:10:26.875Z,5.69
2019-03-11T04:11:26.876Z,5.69
2019-03-11T04:12:26.891Z,5.66
2019-03-11T04:13:26.879Z,5.66
2019-03-11T04:14:26.840Z,5.72
2019-03-11T04:15:26.867Z,5.73
2019-03-11T04:16:26.825Z,5.72
2019-03-11T04:17:26.807Z,5.73
2019-03-11T04:18:26.794Z,5.73
2019-03-11T04:19:29.409Z,5.75
2019-03-11T04:20:26.763Z,5.73
2019-03-11T04:21:26.758Z,5.75
2019-03-11T04:22:26.749Z,5.72
2019-03-11T04:23:26.745Z,5.77
2019-03-11T04:24:26.731Z,5.72
2019-03-11T04:25:26.726Z,5.73
2019-03-11T04:26:26.714Z,5.70
2019-03-11T04:27:26.692Z,5.65
2019-03-11T04:28:26.691Z,5.69
2019-03-11T04:29:26.680Z,5.59
2019-03-11T04:30:26.672Z,5.66
2019-03-11T04:31:26.646Z,5.65
2019-03-11T04:32:26.659Z,5.61
2019-03-11T04:33:26.640Z,5.57
2019-03-11T04:34:26.629Z,5.66
2019-03-11T04:35:26.621Z,5.72
2019-03-11T04:36:26.604Z,5.67
2019-03-11T04:37:26.594Z,5.73
2019-03-11T04:38:26.582Z,5.66
2019-03-11T04:39:26.564Z,5.57
2019-03-11T04:40:26.581Z,5.66
2019-03-11T04:41:26.546Z,5.66
2019-03-11T04:42:26.537Z,5.59
2019-03-11T04:43:26.536Z,5.69
2019-03-11T04:44:26.519Z,5.57
2019-03-11T04:45:26.507Z,5.65
2019-03-11T04:46:26.493Z,5.61
2019-03-11T04:47:26.483Z,5.66
2019-03-11T04:48:26.481Z,5.57
2019-03-11T04:49:26.485Z,5.57
2019-03-11T04:50:26.472Z,5.72
2019-03-11T04:51:26.444Z,5.62
2019-03-11T04:52:26.432Z,5.61
2019-03-11T04:53:26.436Z,5.73
2019-03-11T04:54:26.418Z,5.73
2019-03-11T04:55:26.417Z,5.75
2019-03-11T04:56:26.385Z,5.77
2019-03-11T04:57:26.403Z,5.76
2019-03-11T04:58:26.367Z,5.80
2019-03-11T04:59:26.385Z,5.75
2019-03-11T05:00:26.360Z,5.73
2019-03-11T05:01:26.350Z,5.85
2019-03-11T05:02:26.329Z,5.72
2019-03-11T05:03:26.312Z,5.80
2019-03-11T05:04:26.306Z,5.75
2019-03-11T05:05:26.294Z,5.73
2019-03-11T05:06:26.288Z,5.85
2019-03-11T05:07:26.269Z,5.93
2019-03-11T05:08:26.265Z,5.87
2019-03-11T05:09:26.255Z,5.90
2019-03-11T05:10:26.256Z,5.90
2019-03-11T05:11:26.228Z,5.87
2019-03-11T05:12:26.222Z,5.76
2019-03-11T05:13:26.214Z,5.73
2019-03-11T05:14:26.199Z,5.70
2019-03-11T05:15:26.188Z,5.52
2019-03-11T05:16:26.180Z,5.51
2019-03-11T05:17:26.182Z,5.39
2019-03-11T05:18:26.153Z,5.27
2019-03-11T05:19:26.175Z,5.19
2019-03-11T05:20:26.156Z,5.06
2019-03-11T05:21:26.124Z,5.11
2019-03-11T05:22:26.118Z,5.01
2019-03-11T05:23:26.120Z,4.98
2019-03-11T05:24:26.094Z,4.93
2019-03-11T05:25:26.085Z,4.93
2019-03-11T05:26:26.063Z,4.77
2019-03-11T05:27:26.078Z,4.75
2019-03-11T05:28:26.053Z,4.83
2019-03-11T05:29:26.046Z,4.79
2019-03-11T05:30:26.032Z,4.79
2019-03-11T05:31:26.015Z,4.74
2019-03-11T05:32:26.002Z,4.71
2019-03-11T05:33:26.001Z,4.72
2019-03-11T05:34:25.989Z,4.85
2019-03-11T05:35:25.971Z,4.82
2019-03-11T05:36:27.891Z,4.78
2019-03-11T05:37:25.950Z,4.79
2019-03-11T05:38:25.934Z,4.78
2019-03-11T05:39:25.931Z,4.82
2019-03-11T05:40:25.915Z,4.82
2019-03-11T05:41:25.937Z,4.79
2019-03-11T05:42:25.900Z,4.79
2019-03-11T05:43:25.889Z,4.71
2019-03-11T05:44:25.875Z,4.75
2019-03-11T05:45:25.877Z,4.75
2019-03-11T05:46:25.845Z,4.79
2019-03-11T05:47:25.852Z,4.86
2019-03-11T05:48:25.830Z,4.83
2019-03-11T05:49:25.825Z,4.83
2019-03-11T05:50:25.812Z,4.79
2019-03-11T05:51:31.628Z,4.86
2019-03-11T05:52:25.795Z,4.83
2019-03-11T05:53:25.777Z,5.00
2019-03-11T05:54:25.765Z,4.97
2019-03-11T05:55:25.749Z,4.91
2019-03-11T05:56:25.738Z,4.86
2019-03-11T05:57:25.758Z,4.83
2019-03-11T05:58:25.718Z,4.83
2019-03-11T05:59:25.709Z,4.77
2019-03-11T06:00:25.697Z,4.79
2019-03-11T06:01:25.712Z,4.66
2019-03-11T06:02:25.678Z,4.75
2019-03-11T06:03:25.687Z,4.74
2019-03-11T06:04:25.658Z,4.66
2019-03-11T06:05:25.659Z,4.66
2019-03-11T06:06:25.635Z,4.74
2019-03-11T06:07:25.619Z,4.63
2019-03-11T06:08:25.615Z,4.69
2019-03-11T06:09:25.602Z,4.72
2019-03-11T06:10:25.594Z,4.67
2019-03-11T06:11:25.578Z,4.69
2019-03-11T06:12:25.562Z,4.79
2019-03-11T06:13:35.575Z,4.78
2019-03-11T06:14:25.541Z,4.88
2019-03-11T06:15:25.529Z,4.82
2019-03-11T06:16:25.511Z,4.83
2019-03-11T06:17:25.504Z,4.79
2019-03-11T06:18:25.496Z,4.85
2019-03-11T06:19:25.483Z,4.75
2019-03-11T06:20:25.474Z,4.75
2019-03-11T06:21:25.465Z,4.83
2019-03-11T06:22:25.458Z,4.88
2019-03-11T06:23:25.502Z,4.89
2019-03-11T06:24:25.443Z,5.03
2019-03-11T06:25:25.572Z,5.01
2019-03-11T06:26:25.409Z,5.01
2019-03-11T06:27:25.396Z,5.04
2019-03-11T06:28:25.378Z,5.03
2019-03-11T06:29:30.592Z,5.01
2019-03-11T06:30:25.354Z,5.11
2019-03-11T06:31:25.554Z,5.16
2019-03-11T06:32:25.357Z,5.12
2019-03-11T06:33:25.333Z,5.24
2019-03-11T06:34:25.315Z,5.19
2019-03-11T06:35:25.313Z,5.18
2019-03-11T06:36:25.295Z,5.29
2019-03-11T06:37:25.291Z,5.27
2019-03-11T06:38:25.319Z,5.30
2019-03-11T06:39:25.268Z,5.29
2019-03-11T06:40:25.267Z,5.34
2019-03-11T06:41:25.243Z,5.41
2019-03-11T06:42:25.229Z,5.40
2019-03-11T06:43:25.267Z,5.39
2019-03-11T06:44:25.209Z,5.40
2019-03-11T06:45:25.196Z,5.41
2019-03-11T06:46:25.196Z,5.30
2019-03-11T06:47:25.175Z,5.29
2019-03-11T06:48:26.089Z,5.22
2019-03-11T06:49:25.153Z,5.44
2019-03-11T06:50:25.150Z,5.41
2019-03-11T06:51:25.132Z,5.43
2019-03-11T06:52:25.144Z,5.48
2019-03-11T06:53:25.122Z,5.54
2019-03-11T06:54:25.102Z,5.58
2019-03-11T06:55:25.105Z,5.66
2019-03-11T06:56:25.101Z,5.66
2019-03-11T06:57:25.081Z,5.75
2019-03-11T06:58:25.056Z,5.79
2019-03-11T06:59:25.605Z,6.06
2019-03-11T07:00:25.034Z,6.11
2019-03-11T07:01:25.028Z,6.15
2019-03-11T07:02:25.016Z,6.18
2019-03-11T07:03:25.006Z,6.28
2019-03-11T07:04:25.002Z,6.24
2019-03-11T07:05:24.991Z,6.43
2019-03-11T07:06:24.971Z,6.42
2019-03-11T07:07:24.959Z,6.47
2019-03-11T07:08:24.954Z,6.50
2019-03-11T07:09:25.015Z,6.50
2019-03-11T07:10:24.943Z,6.60
2019-03-11T07:11:24.913Z,6.67
2019-03-11T07:12:24.920Z,6.67
2019-03-11T07:13:24.906Z,6.75
2019-03-11T07:14:24.883Z,6.78
2019-03-11T07:15:24.878Z,6.81
2019-03-11T07:16:24.881Z,7.07
2019-03-11T07:17:24.866Z,7.06
2019-03-11T07:18:24.854Z,6.88
2019-03-11T07:19:24.837Z,7.08
2019-03-11T07:20:24.823Z,6.92
2019-03-11T07:21:24.821Z,6.93
2019-03-11T07:22:24.874Z,6.89
2019-03-11T07:23:24.798Z,6.89
2019-03-11T07:24:24.801Z,6.83
2019-03-11T07:25:24.776Z,6.86
2019-03-11T07:26:24.767Z,6.79
2019-03-11T07:27:27.680Z,6.78
2019-03-11T07:28:24.748Z,6.82
2019-03-11T07:29:25.632Z,6.81
2019-03-11T07:30:24.721Z,6.61
2019-03-11T07:31:24.771Z,6.42
2019-03-11T07:32:24.706Z,6.21
2019-03-11T07:33:24.694Z,6.15
2019-03-11T07:34:24.683Z,6.15
2019-03-11T07:35:24.675Z,5.97
2019-03-11T07:36:24.659Z,5.87
2019-03-11T07:37:24.655Z,5.79
2019-03-11T07:38:24.652Z,5.72
2019-03-11T07:39:24.632Z,5.73
2019-03-11T07:40:29.814Z,5.61
2019-03-11T07:41:24.614Z,5.54
2019-03-11T07:42:24.599Z,5.50
2019-03-11T07:43:24.595Z,5.51
2019-03-11T07:44:24.589Z,5.43
2019-03-11T07:45:24.582Z,5.29
2019-03-11T07:46:24.558Z,5.29
2019-03-11T07:47:24.550Z,5.15
2019-03-11T07:48:24.534Z,5.15
2019-03-11T07:49:24.536Z,5.18
2019-03-11T07:50:24.522Z,5.22
2019-03-11T07:51:24.519Z,5.21
2019-03-11T07:52:24.502Z,5.30
2019-03-11T07:53:24.478Z,5.30
2019-03-11T07:54:35.273Z,5.37
2019-03-11T07:55:24.482Z,5.44
2019-03-11T07:56:24.462Z,5.48
2019-03-11T07:57:24.442Z,5.51
2019-03-11T07:58:24.435Z,5.43
2019-03-11T07:59:24.450Z,5.48
2019-03-11T08:00:24.416Z,5.55
2019-03-11T08:01:24.420Z,5.52
2019-03-11T08:02:24.414Z,5.57
2019-03-11T08:03:24.376Z,5.62
2019-03-11T08:04:24.366Z,5.69
2019-03-11T08:05:24.362Z,5.70
2019-03-11T08:06:24.342Z,5.73
2019-03-11T08:07:24.349Z,5.76
2019-03-11T08:08:24.331Z,5.87
2019-03-11T08:09:24.378Z,5.90
2019-03-11T08:10:24.316Z,6.06
2019-03-11T08:11:24.365Z,6.16
2019-03-11T08:12:24.286Z,6.32
2019-03-11T08:13:24.280Z,6.43
2019-03-11T08:14:24.265Z,6.49
2019-03-11T08:15:24.256Z,6.65
2019-03-11T08:16:24.245Z,6.67
2019-03-11T08:17:24.234Z,6.61
2019-03-11T08:18:34.478Z,6.56
2019-03-11T08:19:24.222Z,6.49
2019-03-11T08:20:24.212Z,6.37
2019-03-11T08:21:24.198Z,6.45
2019-03-11T08:22:24.192Z,6.49
2019-03-11T08:23:24.191Z,6.40
2019-03-11T08:24:24.173Z,6.40
2019-03-11T08:25:24.164Z,6.35
2019-03-11T08:26:24.154Z,6.35
2019-03-11T08:27:24.144Z,6.37
2019-03-11T08:28:24.143Z,6.43
2019-03-11T08:29:24.123Z,6.46
2019-03-11T08:30:24.122Z,6.40
2019-03-11T08:31:24.098Z,6.37
2019-03-11T08:32:24.097Z,6.40
2019-03-11T08:33:24.079Z,6.25
2019-03-11T08:34:24.075Z,6.27
2019-03-11T08:35:24.067Z,6.13
2019-03-11T08:36:24.054Z,6.15
2019-03-11T08:37:24.046Z,6.15
2019-03-11T08:38:24.634Z,6.15
2019-03-11T08:39:24.019Z,6.09
2019-03-11T08:40:24.018Z,6.11
2019-03-11T08:41:24.013Z,6.12
2019-03-11T08:42:24.000Z,5.98
2019-03-11T08:43:23.984Z,5.88
2019-03-11T08:44:23.974Z,5.91
2019-03-11T08:45:23.965Z,5.91
2019-03-11T08:46:23.961Z,5.87
2019-03-11T08:47:23.943Z,5.87
2019-03-11T08:48:23.943Z,5.90
2019-03-11T08:49:23.929Z,5.91
2019-03-11T08:50:23.923Z,5.90
2019-03-11T08:51:23.909Z,6.02
2019-03-11T08:52:23.907Z,6.02
2019-03-11T08:53:23.893Z,6.00
2019-03-11T08:54:23.869Z,6.09
2019-03-11T08:55:23.923Z,6.11
2019-03-11T08:56:23.856Z,6.12
2019-03-11T08:57:23.854Z,6.12
2019-03-11T08:58:23.838Z,6.05
2019-03-11T08:59:23.831Z,6.15
2019-03-11T09:00:23.818Z,6.19
2019-03-11T09:01:23.805Z,6.18
2019-03-11T09:02:23.797Z,6.13
2019-03-11T09:03:23.791Z,6.19
2019-03-11T09:04:23.781Z,6.16
2019-03-11T09:05:23.777Z,6.18
2019-03-11T09:06:23.762Z,6.18
2019-03-11T09:07:23.753Z,6.24
2019-03-11T09:08:23.736Z,6.31
2019-03-11T09:09:23.731Z,6.25
2019-03-11T09:10:23.722Z,6.35
2019-03-11T09:11:23.709Z,6.35
2019-03-11T09:12:23.720Z,6.42
2019-03-11T09:13:23.700Z,6.27
2019-03-11T09:14:23.679Z,6.18
2019-03-11T09:15:23.668Z,6.21
2019-03-11T09:16:23.662Z,6.15
2019-03-11T09:17:23.656Z,6.25
2019-03-11T09:18:23.646Z,6.27
2019-03-11T09:19:23.635Z,6.16
2019-03-11T09:20:23.624Z,6.16
2019-03-11T09:21:23.612Z,6.15
2019-03-11T09:22:23.603Z,6.19
2019-03-11T09:23:23.610Z,6.25
2019-03-11T09:24:23.589Z,6.25
2019-03-11T09:25:23.581Z,6.42
2019-03-11T09:26:23.568Z,6.52
2019-03-11T09:27:23.556Z,6.40
2019-03-11T09:28:23.640Z,6.43
2019-03-11T09:29:23.539Z,6.47
2019-03-11T09:30:23.533Z,6.46
2019-03-11T09:31:23.522Z,6.37
2019-03-11T09:32:23.517Z,6.43
2019-03-11T09:33:23.501Z,6.46
2019-03-11T09:34:23.492Z,6.42
2019-03-11T09:35:23.485Z,6.52
2019-03-11T09:36:23.473Z,6.60
2019-03-11T09:37:23.465Z,6.71
2019-03-11T09:38:23.449Z,6.73
2019-03-11T09:39:23.446Z,6.81
2019-03-11T09:40:23.434Z,6.67
2019-03-11T09:41:23.425Z,6.74
2019-03-11T09:42:23.417Z,6.86
2019-03-11T09:43:23.408Z,6.96
2019-03-11T09:44:23.407Z,6.97
2019-03-11T09:45:24.450Z,7.01
2019-03-11T09:46:23.380Z,6.99
2019-03-11T09:47:23.374Z,7.06
2019-03-11T09:48:23.357Z,7.13
2019-03-11T09:49:23.363Z,7.19
2019-03-11T09:50:23.342Z,7.21
2019-03-11T09:51:23.333Z,7.46
2019-03-11T09:52:23.321Z,7.47
2019-03-11T09:53:23.315Z,7.58
2019-03-11T09:54:23.311Z,7.57
2019-03-11T09:55:23.297Z,7.55
2019-03-11T09:56:23.295Z,7.64
2019-03-11T09:57:23.286Z,7.61
2019-03-11T09:58:23.280Z,7.78
2019-03-11T09:59:23.262Z,7.96
2019-03-11T10:00:24.174Z,7.91
2019-03-11T10:01:23.245Z,7.88
2019-03-11T10:02:23.235Z,7.88
2019-03-11T10:03:23.232Z,7.87
2019-03-11T10:04:23.224Z,7.81
2019-03-11T10:05:23.211Z,7.87
2019-03-11T10:06:23.201Z,7.99
2019-03-11T10:07:23.199Z,8.12
2019-03-11T10:08:23.184Z,8.14
2019-03-11T10:09:23.182Z,8.14
2019-03-11T10:10:23.169Z,8.06
2019-03-11T10:11:23.159Z,8.01
2019-03-11T10:12:23.146Z,8.04
2019-03-11T10:13:23.142Z,7.92
2019-03-11T10:14:23.132Z,7.91
2019-03-11T10:15:23.148Z,7.87
2019-03-11T10:16:23.126Z,7.78
2019-03-11T10:17:23.119Z,7.84
2019-03-11T10:18:23.104Z,7.87
2019-03-11T10:19:23.092Z,7.80
2019-03-11T10:20:23.098Z,7.84
2019-03-11T10:21:23.087Z,7.81
2019-03-11T10:22:23.071Z,7.91
2019-03-11T10:23:31.700Z,7.94
2019-03-11T10:24:23.054Z,7.99
2019-03-11T10:25:23.038Z,7.92
2019-03-11T10:26:23.054Z,7.94
2019-03-11T10:27:23.034Z,7.92
2019-03-11T10:28:23.030Z,8.06
2019-03-11T10:29:23.015Z,8.04
2019-03-11T10:30:23.021Z,8.12
2019-03-11T10:31:22.999Z,8.10
2019-03-11T10:32:22.987Z,8.04
2019-03-11T10:33:22.984Z,8.09
2019-03-11T10:34:22.967Z,8.19
2019-03-11T10:35:32.438Z,8.24
2019-03-11T10:36:22.958Z,8.24
2019-03-11T10:37:22.939Z,8.23
2019-03-11T10:38:22.942Z,8.23
2019-03-11T10:39:22.939Z,8.23
2019-03-11T10:40:22.925Z,8.14
2019-03-11T10:41:22.918Z,8.16
2019-03-11T10:42:22.904Z,8.23
2019-03-11T10:43:22.904Z,8.21
2019-03-11T10:44:22.882Z,8.17
2019-03-11T10:45:31.004Z,8.17
2019-03-11T10:46:22.871Z,8.26
2019-03-11T10:47:22.867Z,8.26
2019-03-11T10:48:22.859Z,8.32
2019-03-11T10:49:22.852Z,8.34
2019-03-11T10:50:22.844Z,8.31
2019-03-11T10:51:22.839Z,8.28
2019-03-11T10:52:22.823Z,8.19
2019-03-11T10:53:22.820Z,8.20
2019-03-11T10:54:22.820Z,8.19
2019-03-11T10:55:22.805Z,8.20
2019-03-11T10:56:22.788Z,8.19
2019-03-11T10:57:22.775Z,8.21
2019-03-11T10:58:22.778Z,8.19
2019-03-11T10:59:22.768Z,8.44
2019-03-11T11:00:22.780Z,8.46
2019-03-11T11:01:22.757Z,8.59
2019-03-11T11:02:22.763Z,8.70
2019-03-11T11:03:22.735Z,8.72
2019-03-11T11:04:22.724Z,8.71
2019-03-11T11:05:22.715Z,8.57
2019-03-11T11:06:22.719Z,8.52
2019-03-11T11:07:22.702Z,8.39
2019-03-11T11:08:22.708Z,8.46
2019-03-11T11:09:22.684Z,8.44
2019-03-11T11:10:22.684Z,8.35
2019-03-11T11:11:22.679Z,8.35
2019-03-11T11:12:22.666Z,8.41
2019-03-11T11:13:22.656Z,8.32
2019-03-11T11:14:22.675Z,8.35
2019-03-11T11:15:22.644Z,8.28
2019-03-11T11:16:22.625Z,8.17
2019-03-11T11:17:22.615Z,8.16
2019-03-11T11:18:22.618Z,8.20
2019-03-11T11:19:22.614Z,8.21
2019-03-11T11:20:22.601Z,8.29
2019-03-11T11:21:22.597Z,8.42
2019-03-11T11:22:22.578Z,8.42
2019-03-11T11:23:22.575Z,8.49
2019-03-11T11:24:22.565Z,8.42
2019-03-11T11:25:22.556Z,8.57
2019-03-11T11:26:22.561Z,8.71
2019-03-11T11:27:22.542Z,8.83
2019-03-11T11:28:22.538Z,8.88
2019-03-11T11:29:22.527Z,9.03
2019-03-11T11:30:22.520Z,8.98
2019-03-11T11:31:22.510Z,8.98
2019-03-11T11:32:22.504Z,8.98
2019-03-11T11:33:22.498Z,8.85
2019-03-11T11:34:22.493Z,8.85
2019-03-11T11:35:22.472Z,8.88
2019-03-11T11:36:22.471Z,8.81
2019-03-11T11:37:22.461Z,8.77
2019-03-11T11:38:22.459Z,8.80
2019-03-11T11:39:22.453Z,8.83
2019-03-11T11:40:22.438Z,8.88
2019-03-11T11:41:22.430Z,8.85
2019-03-11T11:42:22.416Z,9.03
2019-03-11T11:43:22.415Z,9.09
2019-03-11T11:44:22.416Z,9.08
2019-03-11T11:45:22.411Z,9.12
2019-03-11T11:46:22.395Z,9.19
2019-03-11T11:47:22.383Z,9.14
2019-03-11T11:48:22.381Z,9.06
2019-03-11T11:49:22.367Z,9.09
2019-03-11T11:50:22.358Z,8.99
2019-03-11T11:51:22.368Z,9.01
2019-03-11T11:52:22.341Z,9.12
2019-03-11T11:53:24.944Z,9.09
2019-03-11T11:54:22.334Z,9.01
2019-03-11T11:55:22.323Z,9.08
2019-03-11T11:56:22.314Z,9.06
2019-03-11T11:57:22.308Z,9.06
2019-03-11T11:58:22.300Z,9.03
2019-03-11T11:59:22.293Z,8.98
2019-03-11T12:00:22.279Z,8.98
2019-03-11T12:01:22.274Z,8.86
2019-03-11T12:02:22.270Z,8.92
2019-03-11T12:03:22.259Z,8.98
2019-03-11T12:04:22.252Z,9.01
2019-03-11T12:05:22.255Z,8.99
2019-03-11T12:06:22.238Z,9.08
2019-03-11T12:07:22.244Z,9.23
2019-03-11T12:08:22.219Z,9.26
2019-03-11T12:09:22.211Z,9.37
2019-03-11T12:10:22.207Z,9.48
2019-03-11T12:11:22.201Z,9.50
2019-03-11T12:12:22.194Z,9.62
2019-03-11T12:13:22.174Z,9.63
2019-03-11T12:14:22.180Z,9.57
2019-03-11T12:15:22.164Z,9.70
2019-03-11T12:16:22.162Z,9.78
2019-03-11T12:17:23.477Z,9.80
2019-03-11T12:18:22.157Z,9.81
2019-03-11T12:19:22.144Z,9.98
2019-03-11T12:20:22.135Z,10.08
2019-03-11T12:21:22.132Z,10.18
2019-03-11T12:22:22.117Z,10.26
2019-03-11T12:23:22.112Z,10.26
2019-03-11T12:24:22.099Z,10.31
2019-03-11T12:25:22.093Z,10.34
2019-03-11T12:26:22.085Z,10.10
2019-03-11T12:27:22.081Z,10.12
2019-03-11T12:28:22.075Z,10.08
2019-03-11T12:29:22.073Z,10.01
2019-03-11T12:30:22.067Z,10.05
2019-03-11T12:31:22.072Z,10.17
2019-03-11T12:32:22.041Z,10.08
2019-03-11T12:33:22.039Z,10.05
2019-03-11T12:34:22.038Z,9.99
2019-03-11T12:35:22.028Z,9.84
2019-03-11T12:36:22.020Z,9.85
2019-03-11T12:37:22.013Z,9.84
2019-03-11T12:38:22.005Z,9.69
2019-03-11T12:39:21.989Z,9.69
2019-03-11T12:40:21.990Z,9.72
2019-03-11T12:41:21.986Z,9.65
2019-03-11T12:42:22.067Z,9.65
2019-03-11T12:43:21.973Z,9.51
2019-03-11T12:44:21.955Z,9.26
2019-03-11T12:45:21.955Z,9.22
2019-03-11T12:46:21.946Z,8.99
2019-03-11T12:47:21.950Z,8.92
2019-03-11T12:48:21.929Z,8.80
2019-03-11T12:49:21.928Z,8.75
2019-03-11T12:50:21.923Z,8.71
2019-03-11T12:51:21.912Z,8.71
2019-03-11T12:52:21.899Z,8.77
2019-03-11T12:53:21.891Z,8.83
2019-03-11T12:54:21.888Z,8.85
2019-03-11T12:55:22.017Z,8.83
2019-03-11T12:56:21.871Z,8.83
2019-03-11T12:57:21.861Z,8.92
2019-03-11T12:58:21.852Z,8.99
2019-03-11T12:59:21.843Z,9.11
2019-03-11T13:00:21.839Z,8.93
2019-03-11T13:01:21.833Z,9.03
2019-03-11T13:02:21.820Z,9.03
2019-03-11T13:03:21.819Z,9.06
2019-03-11T13:04:21.803Z,9.15
2019-03-11T13:05:21.807Z,9.22
2019-03-11T13:06:21.791Z,9.19
2019-03-11T13:07:21.779Z,9.24
2019-03-11T13:08:21.775Z,9.29
2019-03-11T13:09:21.771Z,9.41
2019-03-11T13:10:21.753Z,9.40
2019-03-11T13:11:21.743Z,9.37
2019-03-11T13:12:21.736Z,9.34
2019-03-11T13:13:21.735Z,9.30
2019-03-11T13:14:21.727Z,9.30
2019-03-11T13:15:21.716Z,9.30
2019-03-11T13:16:21.706Z,9.24
2019-03-11T13:17:21.694Z,9.22
2019-03-11T13:18:21.683Z,9.22